createdAt,value
2022-11-25T00:00:34.359Z,6.43
2022-11-25T00:03:37.551Z,6.10
2022-11-25T00:06:40.505Z,6.43
2022-11-25T00:09:43.424Z,5.83
2022-11-25T00:12:47.693Z,6.40
2022-11-25T00:15:50.631Z,6.97
2022-11-25T00:18:55.530Z,6.13
2022-11-25T00:21:58.456Z,6.50
2022-11-25T00:25:01.394Z,6.33
2022-11-25T00:28:05.678Z,6.23
2022-11-25T00:31:10.529Z,7.00
2022-11-25T00:34:14.601Z,6.07
2022-11-25T00:37:17.545Z,6.37
2022-11-25T00:40:20.520Z,6.37
2022-11-25T00:43:42.387Z,7.30
2022-11-25T00:46:45.312Z,6.90
2022-11-25T00:49:49.849Z,6.57
2022-11-25T00:52:52.766Z,6.93
2022-11-25T00:56:14.010Z,6.90
2022-11-25T00:59:18.832Z,7.43
2022-11-25T01:02:22.129Z,6.90
2022-11-25T01:05:25.085Z,7.40
2022-11-25T01:08:28.043Z,6.53
2022-11-25T01:11:31.090Z,7.40
2022-11-25T01:14:36.254Z,7.27
2022-11-25T01:17:39.436Z,6.97
2022-11-25T01:20:42.380Z,7.70
2022-11-25T01:23:45.636Z,7.60
2022-11-25T01:26:48.597Z,7.33
2022-11-25T01:29:52.863Z,7.63
2022-11-25T01:32:55.795Z,7.27
2022-11-25T01:36:01.183Z,8.30
2022-11-25T01:39:04.861Z,8.80
2022-11-25T01:42:07.813Z,8.43
2022-11-25T01:45:35.751Z,8.57
2022-11-25T01:48:43.773Z,7.80
2022-11-25T01:51:51.383Z,7.13
2022-11-25T01:54:56.757Z,7.53
2022-11-25T01:58:03.593Z,8.47
2022-11-25T02:01:08.595Z,7.57
2022-11-25T02:04:13.546Z,8.70
2022-11-25T02:07:21.613Z,7.63
2022-11-25T02:10:29.928Z,8.37
2022-11-25T02:13:34.069Z,8.13
2022-11-25T02:16:38.401Z,7.77
2022-11-25T02:19:56.965Z,8.67
2022-11-25T02:23:05.764Z,8.33
2022-11-25T02:26:10.499Z,7.90
2022-11-25T02:29:13.630Z,8.23
2022-11-25T02:32:16.654Z,8.63
2022-11-25T02:35:31.785Z,7.97
2022-11-25T02:38:39.383Z,7.20
2022-11-25T02:41:46.592Z,7.53
2022-11-25T02:44:49.967Z,8.00
2022-11-25T02:47:52.913Z,7.37
2022-11-25T02:50:55.951Z,8.03
2022-11-25T02:53:59.462Z,7.37
2022-11-25T02:57:03.766Z,7.83
2022-11-25T03:00:08.257Z,7.17
2022-11-25T03:03:11.938Z,8.50
2022-11-25T03:06:14.872Z,8.20
2022-11-25T03:09:17.776Z,7.80
2022-11-25T03:12:22.579Z,7.60
2022-11-25T03:15:25.979Z,7.27
2022-11-25T03:18:29.043Z,7.90
2022-11-25T03:21:32.005Z,8.20
2022-11-25T03:24:35.235Z,7.93
2022-11-25T03:27:40.902Z,7.90
2022-11-25T03:30:44.569Z,7.50
2022-11-25T03:33:47.540Z,7.77
2022-11-25T03:36:50.582Z,7.73
2022-11-25T03:39:53.576Z,8.47
2022-11-25T03:42:57.859Z,8.17
2022-11-25T03:46:00.847Z,8.17
2022-11-25T03:49:03.941Z,8.37
2022-11-25T03:52:07.040Z,7.93
2022-11-25T03:55:12.896Z,7.67
2022-11-25T03:58:17.188Z,8.53
2022-11-25T04:01:20.172Z,8.40
2022-11-25T04:04:23.206Z,7.83
2022-11-25T04:07:26.212Z,7.77
2022-11-25T04:10:29.182Z,7.47
2022-11-25T04:13:33.480Z,8.13
2022-11-25T04:16:36.546Z,8.03
2022-11-25T04:19:39.507Z,8.57
2022-11-25T04:22:42.822Z,7.47
2022-11-25T04:25:45.754Z,7.70
2022-11-25T04:28:51.811Z,7.83
2022-11-25T04:31:55.946Z,7.20
2022-11-25T04:34:58.891Z,7.43
2022-11-25T04:38:01.820Z,7.43
2022-11-25T04:41:05.569Z,6.87
2022-11-25T04:44:09.828Z,7.03
2022-11-25T04:47:12.808Z,7.23
2022-11-25T04:50:18.933Z,6.80
2022-11-25T04:53:21.924Z,6.93
2022-11-25T04:56:25.324Z,6.40
2022-11-25T04:59:43.557Z,6.77
2022-11-25T05:02:46.574Z,6.27
2022-11-25T05:05:49.587Z,6.13
2022-11-25T05:08:53.014Z,6.30
2022-11-25T05:11:56.051Z,5.87
2022-11-25T05:15:00.315Z,5.90
2022-11-25T05:18:03.255Z,5.57
2022-11-25T05:21:07.432Z,6.17
2022-11-25T05:24:10.504Z,5.20
2022-11-25T05:27:13.469Z,5.30
2022-11-25T05:30:17.885Z,5.60
2022-11-25T05:33:20.833Z,6.17
2022-11-25T05:36:23.748Z,5.50
2022-11-25T05:39:26.699Z,6.23
2022-11-25T05:42:30.437Z,5.97
2022-11-25T05:45:34.711Z,6.00
2022-11-25T05:48:37.673Z,5.80
2022-11-25T05:51:40.687Z,5.87
2022-11-25T05:54:43.737Z,6.10
2022-11-25T05:57:46.657Z,6.33
2022-11-25T06:00:51.048Z,6.23
2022-11-25T06:03:54.011Z,6.27
2022-11-25T06:06:56.954Z,5.50
2022-11-25T06:10:03.034Z,6.33
2022-11-25T06:13:06.476Z,5.67
2022-11-25T06:16:13.048Z,5.93
2022-11-25T06:19:16.034Z,5.77
2022-11-25T06:22:19.015Z,5.30
2022-11-25T06:25:21.951Z,5.67
2022-11-25T06:28:24.934Z,6.00
2022-11-25T06:31:29.237Z,5.97
2022-11-25T06:34:32.256Z,5.80
2022-11-25T06:37:35.300Z,6.27
2022-11-25T06:40:38.220Z,5.60
2022-11-25T06:43:41.317Z,5.97
2022-11-25T06:46:45.817Z,5.40
2022-11-25T06:49:48.789Z,5.40
2022-11-25T06:52:51.713Z,6.40
2022-11-25T06:56:06.627Z,5.73
2022-11-25T06:59:09.773Z,5.40
2022-11-25T07:02:14.252Z,5.63
2022-11-25T07:05:17.342Z,5.20
2022-11-25T07:08:22.399Z,5.07
2022-11-25T07:11:27.406Z,5.17
2022-11-25T07:14:30.413Z,4.87
2022-11-25T07:17:34.965Z,5.00
2022-11-25T07:20:37.905Z,4.57
2022-11-25T07:23:41.783Z,5.63
2022-11-25T07:26:45.777Z,5.30
2022-11-25T07:30:10.145Z,4.63
2022-11-25T07:33:13.902Z,5.13
2022-11-25T07:36:16.909Z,4.67
2022-11-25T07:39:21.849Z,4.63
2022-11-25T07:42:24.769Z,4.40
2022-11-25T07:45:27.765Z,4.33
2022-11-25T07:48:32.295Z,4.30
2022-11-25T07:51:37.447Z,4.00
2022-11-25T07:54:40.371Z,4.00
2022-11-25T07:57:43.332Z,4.13
2022-11-25T08:00:46.318Z,3.70
2022-11-25T08:03:52.012Z,4.30
2022-11-25T08:06:54.985Z,4.17
2022-11-25T08:09:57.951Z,3.80
2022-11-25T08:13:02.453Z,3.83
2022-11-25T08:16:05.994Z,4.03
2022-11-25T08:19:13.584Z,3.80
2022-11-25T08:22:16.814Z,4.23
2022-11-25T08:25:19.778Z,3.73
2022-11-25T08:28:22.758Z,4.07
2022-11-25T08:31:27.901Z,4.00
2022-11-25T08:34:32.233Z,3.60
2022-11-25T08:37:35.246Z,4.00
2022-11-25T08:40:38.858Z,4.40
2022-11-25T08:43:42.555Z,3.70
2022-11-25T08:46:45.673Z,4.20
2022-11-25T08:49:52.975Z,3.90
2022-11-25T08:52:57.513Z,3.83
2022-11-25T08:56:00.451Z,3.60
2022-11-25T08:59:03.555Z,3.87
2022-11-25T09:02:07.376Z,3.87
2022-11-25T09:05:14.819Z,3.33
2022-11-25T09:08:17.788Z,3.97
2022-11-25T09:11:20.813Z,3.47
2022-11-25T09:14:23.954Z,3.23
2022-11-25T09:17:27.435Z,3.30
2022-11-25T09:20:33.381Z,3.70
2022-11-25T09:23:36.497Z,4.27
2022-11-25T09:26:41.071Z,3.33
2022-11-25T09:29:44.013Z,3.40
2022-11-25T09:32:49.993Z,3.30
2022-11-25T09:35:55.914Z,3.63
2022-11-25T09:38:58.895Z,3.93
2022-11-25T09:42:34.327Z,3.80
2022-11-25T09:46:03.185Z,3.57
2022-11-25T09:49:15.649Z,3.70
2022-11-25T09:52:28.606Z,3.83
2022-11-25T09:55:36.056Z,3.73
2022-11-25T09:58:45.782Z,3.47
2022-11-25T10:01:51.850Z,3.80
2022-11-25T10:05:03.641Z,3.67
2022-11-25T10:08:13.523Z,3.97
2022-11-25T10:11:25.625Z,4.17
2022-11-25T10:14:39.764Z,3.57
2022-11-25T10:17:49.281Z,3.97
2022-11-25T10:20:53.742Z,3.70
2022-11-25T10:23:58.179Z,3.67
2022-11-25T10:27:05.915Z,3.30
2022-11-25T10:30:17.806Z,3.40
2022-11-25T10:33:22.750Z,4.13
2022-11-25T10:36:29.799Z,4.23
2022-11-25T10:39:36.132Z,3.73
2022-11-25T10:42:39.068Z,4.10
2022-11-25T10:45:49.487Z,3.57
2022-11-25T10:49:01.494Z,3.43
2022-11-25T10:52:11.652Z,4.10
2022-11-25T10:55:18.397Z,3.90
2022-11-25T10:58:29.471Z,4.37
2022-11-25T11:01:32.494Z,4.10
2022-11-25T11:04:36.032Z,4.10
2022-11-25T11:07:41.035Z,3.93
2022-11-25T11:10:45.729Z,4.10
2022-11-25T11:13:50.639Z,3.67
2022-11-25T11:16:55.394Z,3.83
2022-11-25T11:20:15.143Z,4.23
2022-11-25T11:23:18.385Z,4.10
2022-11-25T11:26:28.397Z,4.30
2022-11-25T11:29:31.343Z,4.07
2022-11-25T11:32:34.331Z,4.87
2022-11-25T11:35:51.477Z,4.10
2022-11-25T11:38:56.133Z,3.97
2022-11-25T11:42:09.682Z,4.27
2022-11-25T11:45:28.562Z,3.80
2022-11-25T11:48:39.039Z,3.73
2022-11-25T11:51:48.286Z,4.13
2022-11-25T11:54:54.994Z,4.40
2022-11-25T11:58:09.760Z,3.87
2022-11-25T12:01:26.167Z,3.57
2022-11-25T12:04:34.263Z,3.90
2022-11-25T12:07:45.757Z,3.73
2022-11-25T12:10:52.104Z,3.93
2022-11-25T12:14:03.562Z,3.40
2022-11-25T12:17:12.582Z,3.90
2022-11-25T12:20:23.157Z,3.80
2022-11-25T12:23:33.865Z,3.90
2022-11-25T12:26:45.461Z,3.80
2022-11-25T12:29:53.587Z,3.50
2022-11-25T12:33:04.714Z,4.57
2022-11-25T12:36:14.258Z,4.33
2022-11-25T12:39:25.175Z,3.53
2022-11-25T12:42:31.494Z,3.63
2022-11-25T12:45:35.894Z,4.13
2022-11-25T12:48:41.581Z,4.33
2022-11-25T12:52:12.890Z,4.03
2022-11-25T12:55:18.905Z,4.10
2022-11-25T12:58:42.110Z,3.83
2022-11-25T13:01:58.037Z,4.07
2022-11-25T13:05:39.963Z,5.10
2022-11-25T13:08:58.269Z,4.23
2022-11-25T13:12:17.756Z,3.93
2022-11-25T13:15:27.439Z,4.53
2022-11-25T13:18:34.002Z,4.77
2022-11-25T13:21:37.193Z,4.93
2022-11-25T13:24:42.533Z,4.87
2022-11-25T13:27:58.757Z,5.10
2022-11-25T13:31:23.988Z,4.37
2022-11-25T13:34:30.486Z,4.80
2022-11-25T13:37:37.366Z,4.40
2022-11-25T13:40:40.872Z,4.43
2022-11-25T13:44:01.110Z,4.70
2022-11-25T13:47:29.424Z,4.80
2022-11-25T13:50:55.518Z,4.77
2022-11-25T13:54:00.932Z,4.37
2022-11-25T13:57:25.724Z,4.83
2022-11-25T14:01:03.514Z,4.77
2022-11-25T14:04:08.045Z,6.20
2022-11-25T14:07:24.510Z,4.60
2022-11-25T14:10:45.840Z,4.87
2022-11-25T14:14:15.911Z,3.83
2022-11-25T14:17:45.256Z,4.37
2022-11-25T14:20:57.026Z,3.90
2022-11-25T14:24:12.209Z,4.13
2022-11-25T14:27:17.235Z,3.67
2022-11-25T14:30:20.685Z,4.70
2022-11-25T14:33:26.889Z,3.97
2022-11-25T14:36:34.597Z,4.60
2022-11-25T14:39:44.844Z,4.40
2022-11-25T14:42:50.602Z,4.33
2022-11-25T14:46:11.789Z,4.10
2022-11-25T14:49:59.641Z,4.20
2022-11-25T14:52:37.845Z,4.47
2022-11-25T14:55:42.426Z,4.17
2022-11-25T14:58:48.716Z,3.97
2022-11-25T15:01:54.926Z,3.40
2022-11-25T15:05:17.289Z,4.10
2022-11-25T15:08:22.063Z,4.40
2022-11-25T15:11:29.689Z,3.57
2022-11-25T15:14:35.307Z,4.33
2022-11-25T15:17:38.291Z,3.93
2022-11-25T15:20:41.304Z,4.40
2022-11-25T15:23:47.447Z,3.93
2022-11-25T15:26:54.911Z,4.37
2022-11-25T15:29:58.916Z,4.60
2022-11-25T15:33:03.590Z,4.20
2022-11-25T15:36:07.207Z,4.60
2022-11-25T15:39:15.925Z,4.03
2022-11-25T15:42:23.250Z,3.73
2022-11-25T15:45:38.654Z,4.43
2022-11-25T15:48:45.967Z,4.30
2022-11-25T15:51:53.383Z,4.60
2022-11-25T15:55:01.603Z,3.87
2022-11-25T15:58:13.825Z,4.13
2022-11-25T16:01:24.483Z,4.90
2022-11-25T16:04:27.646Z,4.80
2022-11-25T16:07:30.715Z,4.63
2022-11-25T16:10:49.334Z,4.80
2022-11-25T16:13:54.259Z,4.40
2022-11-25T16:17:02.144Z,5.07
2022-11-25T16:20:06.353Z,5.30
2022-11-25T16:23:09.824Z,4.87
2022-11-25T16:26:18.580Z,5.63
2022-11-25T16:29:28.981Z,5.20
2022-11-25T16:32:33.822Z,5.00
2022-11-25T16:35:37.389Z,5.10
2022-11-25T16:38:40.334Z,5.13
2022-11-25T16:41:46.167Z,4.63
2022-11-25T16:44:52.624Z,4.43
2022-11-25T16:47:55.899Z,5.07
2022-11-25T16:50:58.899Z,4.77
2022-11-25T16:54:01.849Z,4.53
2022-11-25T16:57:05.266Z,5.00
2022-11-25T17:00:16.704Z,5.03
2022-11-25T17:03:21.857Z,5.00
2022-11-25T17:06:27.799Z,4.23
2022-11-25T17:09:32.274Z,4.80
2022-11-25T17:12:36.805Z,5.20
2022-11-25T17:15:41.318Z,5.83
2022-11-25T17:18:44.443Z,5.90
2022-11-25T17:21:47.413Z,5.33
2022-11-25T17:24:50.661Z,6.17
2022-11-25T17:27:54.543Z,6.33
2022-11-25T17:30:58.818Z,6.20
2022-11-25T17:34:01.740Z,6.17
2022-11-25T17:37:05.687Z,6.13
2022-11-25T17:40:10.230Z,5.93
2022-11-25T17:43:16.426Z,6.73
2022-11-25T17:46:21.045Z,6.30
2022-11-25T17:49:24.939Z,5.87
2022-11-25T17:52:27.944Z,6.67
2022-11-25T17:55:31.444Z,6.03
2022-11-25T17:58:34.426Z,6.33
2022-11-25T18:01:38.706Z,6.30
2022-11-25T18:04:41.796Z,6.03
2022-11-25T18:07:45.122Z,6.30
2022-11-25T18:10:48.365Z,6.90
2022-11-25T18:13:51.580Z,7.40
2022-11-25T18:16:57.251Z,8.07
2022-11-25T18:20:00.301Z,7.37
2022-11-25T18:23:03.618Z,8.90
2022-11-25T18:26:07.140Z,8.47
2022-11-25T18:29:15.550Z,10.33
2022-11-25T18:32:19.906Z,12.53
2022-11-25T18:35:29.787Z,9.97
2022-11-25T18:38:35.579Z,10.27
2022-11-25T18:41:39.309Z,10.17
2022-11-25T18:44:44.483Z,9.37
2022-11-25T18:47:48.952Z,9.60
2022-11-25T18:50:53.631Z,9.63
2022-11-25T18:53:56.548Z,8.87
2022-11-25T18:56:59.549Z,9.00
2022-11-25T19:00:31.025Z,9.07
2022-11-25T19:03:27.704Z,8.97
2022-11-25T19:06:31.640Z,8.73
2022-11-25T19:09:34.852Z,9.67
2022-11-25T19:12:37.893Z,8.17
2022-11-25T19:15:40.928Z,8.60
2022-11-25T19:18:47.586Z,10.00
2022-11-25T19:21:50.516Z,9.20
2022-11-25T19:24:53.899Z,9.17
2022-11-25T19:27:59.898Z,9.93
2022-11-25T19:31:04.579Z,10.40
2022-11-25T19:34:11.283Z,9.87
2022-11-25T19:37:19.885Z,10.90
2022-11-25T19:40:25.103Z,9.53
2022-11-25T19:43:28.272Z,9.80
2022-11-25T19:46:52.558Z,9.10
2022-11-25T19:50:01.276Z,9.07
2022-11-25T19:53:04.428Z,9.37
2022-11-25T19:56:07.701Z,9.57
2022-11-25T19:59:10.685Z,8.80
2022-11-25T20:02:15.902Z,10.13
2022-11-25T20:05:22.954Z,9.70
2022-11-25T20:08:28.606Z,9.37
2022-11-25T20:11:31.579Z,9.37
2022-11-25T20:14:34.738Z,9.07
2022-11-25T20:17:40.085Z,8.60
2022-11-25T20:20:45.850Z,8.77
2022-11-25T20:23:50.033Z,8.90
2022-11-25T20:26:53.449Z,8.40
2022-11-25T20:29:57.008Z,9.50
2022-11-25T20:32:59.936Z,9.27
2022-11-25T20:36:07.811Z,8.17
2022-11-25T20:39:17.445Z,8.73
2022-11-25T20:42:21.264Z,7.77
2022-11-25T20:45:24.326Z,9.00
2022-11-25T20:48:28.686Z,8.50
2022-11-25T20:51:32.967Z,8.90
2022-11-25T20:54:36.837Z,8.27
2022-11-25T20:57:40.041Z,8.40
2022-11-25T21:00:43.078Z,8.57
2022-11-25T21:03:47.274Z,7.83
2022-11-25T21:06:51.587Z,7.53
2022-11-25T21:09:54.765Z,7.17
2022-11-25T21:12:58.045Z,7.43
2022-11-25T21:16:01.054Z,7.30
2022-11-25T21:19:04.129Z,7.30
2022-11-25T21:22:11.355Z,8.10
2022-11-25T21:25:16.691Z,7.60
2022-11-25T21:28:21.596Z,6.80
2022-11-25T21:31:26.167Z,6.40
2022-11-25T21:34:29.232Z,6.37
2022-11-25T21:37:35.767Z,5.87
2022-11-25T21:40:41.661Z,4.87
2022-11-25T21:43:46.731Z,5.63
2022-11-25T21:46:49.651Z,5.30
2022-11-25T21:49:53.145Z,5.00
2022-11-25T21:52:57.502Z,4.20
2022-11-25T21:56:00.464Z,4.10
2022-11-25T21:59:06.320Z,3.93
2022-11-25T22:02:17.590Z,4.63
2022-11-25T22:05:23.266Z,4.53
2022-11-25T22:08:27.568Z,4.40
2022-11-25T22:11:32.613Z,4.40
2022-11-25T22:14:37.883Z,4.13
2022-11-25T22:17:41.057Z,4.33
2022-11-25T22:20:44.009Z,3.70
2022-11-25T22:23:48.297Z,3.90
2022-11-25T22:26:57.480Z,4.17
2022-11-25T22:30:00.936Z,4.40
2022-11-25T22:33:04.854Z,3.43
2022-11-25T22:36:08.120Z,3.37
2022-11-25T22:39:15.860Z,3.57
2022-11-25T22:42:25.458Z,4.03
2022-11-25T22:45:32.558Z,3.57
2022-11-25T22:48:38.510Z,4.00
2022-11-25T22:51:41.506Z,3.30
2022-11-25T22:54:45.811Z,3.27
2022-11-25T22:57:50.055Z,3.90
2022-11-25T23:00:53.792Z,3.47
2022-11-25T23:03:56.818Z,3.53
2022-11-25T23:06:59.991Z,3.77
2022-11-25T23:10:07.448Z,3.77
2022-11-25T23:13:10.457Z,4.23
2022-11-25T23:16:13.458Z,3.57
2022-11-25T23:19:17.657Z,2.80
2022-11-25T23:22:21.379Z,4.03
2022-11-25T23:25:25.676Z,3.07
2022-11-25T23:28:28.638Z,3.60
2022-11-25T23:31:31.838Z,4.10
2022-11-25T23:34:36.143Z,3.50
2022-11-25T23:37:39.351Z,3.60
2022-11-25T23:40:43.636Z,3.60
2022-11-25T23:43:46.579Z,3.27
2022-11-25T23:46:50.374Z,3.07
2022-11-25T23:49:57.758Z,3.57
2022-11-25T23:53:04.010Z,2.90
2022-11-25T23:56:09.017Z,3.27
2022-11-25T23:59:14.623Z,3.10
